createdAt,value
2017-06-02T00:08:20.312Z,0
2017-06-02T00:18:29.893Z,0
2017-06-02T00:28:39.440Z,0
2017-06-02T00:38:49.007Z,0
2017-06-02T00:48:58.574Z,0
2017-06-02T00:59:08.118Z,0
2017-06-02T01:09:17.702Z,0
2017-06-02T01:19:27.280Z,0
2017-06-02T01:29:36.929Z,0
2017-06-02T01:39:46.621Z,0
2017-06-02T01:49:56.332Z,0
2017-06-02T02:00:06.180Z,0
2017-06-02T02:10:16.103Z,0
2017-06-02T02:20:26.095Z,0
2017-06-02T02:30:36.115Z,0
2017-06-02T02:40:45.996Z,12
2017-06-02T02:50:55.885Z,32
2017-06-02T03:01:05.787Z,112
2017-06-02T03:11:15.768Z,280
2017-06-02T03:21:25.713Z,584
2017-06-02T03:31:35.673Z,1092
2017-06-02T03:41:45.651Z,1724
2017-06-02T03:51:55.538Z,2460
2017-06-02T04:02:05.312Z,3336
2017-06-02T04:12:14.987Z,4128
2017-06-02T04:22:24.579Z,5380
2017-06-02T04:32:34.007Z,6612
2017-06-02T04:42:43.295Z,7312
2017-06-02T04:52:52.511Z,7996
2017-06-02T05:03:01.634Z,9564
2017-06-02T05:13:10.667Z,10148
2017-06-02T05:23:19.549Z,11176
2017-06-02T05:33:28.195Z,12432
2017-06-02T05:43:36.689Z,15328
2017-06-02T05:53:45.026Z,18528
2017-06-02T06:03:53.230Z,21440
2017-06-02T06:14:01.334Z,24064
2017-06-02T06:24:09.281Z,28672
2017-06-02T06:34:17.205Z,33504
2017-06-02T06:44:24.983Z,39616
2017-06-02T06:54:32.652Z,45952
2017-06-02T07:04:40.209Z,32256
2017-06-02T07:14:47.748Z,29184
2017-06-02T07:24:55.328Z,53408
2017-06-02T07:35:02.834Z,48896
2017-06-02T07:45:10.215Z,49248
2017-06-02T07:55:17.616Z,38368
2017-06-02T08:05:25.038Z,77728
2017-06-02T08:15:32.467Z,92992
2017-06-02T08:25:39.859Z,49056
2017-06-02T08:35:47.289Z,88256
2017-06-02T08:45:54.767Z,66048
2017-06-02T08:56:02.044Z,104992
2017-06-02T09:06:09.176Z,51840
2017-06-02T09:16:16.428Z,100928
2017-06-02T09:26:23.601Z,94944
2017-06-02T09:36:30.606Z,89888
2017-06-02T09:46:37.525Z,105920
2017-06-02T09:56:44.519Z,101632
2017-06-02T10:06:51.451Z,105504
2017-06-02T10:16:58.364Z,109088
2017-06-02T10:27:05.219Z,112384
2017-06-02T10:37:12.114Z,109760
2017-06-02T10:47:18.924Z,114176
2017-06-02T10:57:25.755Z,125952
2017-06-02T11:07:32.530Z,123552
2017-06-02T11:17:39.243Z,124896
2017-06-02T11:27:45.979Z,126240
2017-06-02T11:37:52.710Z,133312
2017-06-02T11:47:59.331Z,75904
2017-06-02T11:58:06.091Z,129472
2017-06-02T12:08:12.827Z,55584
2017-06-02T12:18:19.538Z,59424
2017-06-02T12:28:26.160Z,43584
2017-06-02T12:38:32.885Z,43584
2017-06-02T12:48:39.645Z,97792
2017-06-02T12:58:46.308Z,110976
2017-06-02T13:08:52.833Z,43264
2017-06-02T13:18:59.279Z,99648
2017-06-02T13:29:05.806Z,95840
2017-06-02T13:39:12.256Z,85632
2017-06-02T13:49:18.621Z,101728
2017-06-02T13:59:24.992Z,98368
2017-06-02T14:09:31.239Z,100192
2017-06-02T14:19:37.439Z,92320
2017-06-02T14:29:43.685Z,81472
2017-06-02T14:39:49.986Z,39968
2017-06-02T14:49:56.534Z,53440
2017-06-02T15:00:03.111Z,40064
2017-06-02T15:10:09.743Z,34752
2017-06-02T15:20:16.498Z,31392
2017-06-02T15:30:23.261Z,47872
2017-06-02T15:40:29.777Z,46880
2017-06-02T15:50:36.150Z,34432
2017-06-02T16:00:42.710Z,33760
2017-06-02T16:10:49.449Z,25152
2017-06-02T16:20:56.340Z,33920
2017-06-02T16:31:03.142Z,26848
2017-06-02T16:41:09.891Z,21728
2017-06-02T16:51:16.736Z,18464
2017-06-02T17:01:23.834Z,10580
2017-06-02T17:11:31.346Z,9336
2017-06-02T17:21:39.065Z,10040
2017-06-02T17:31:46.871Z,9832
2017-06-02T17:41:54.754Z,10284
2017-06-02T17:52:02.629Z,9348
2017-06-02T18:02:10.505Z,7368
2017-06-02T18:12:18.461Z,6236
2017-06-02T18:22:26.502Z,5348
2017-06-02T18:32:34.614Z,3684
2017-06-02T18:42:42.814Z,2896
2017-06-02T18:52:51.087Z,2296
2017-06-02T19:02:59.435Z,1604
2017-06-02T19:13:07.831Z,1036
2017-06-02T19:23:16.278Z,452
2017-06-02T19:33:24.738Z,172
2017-06-02T19:43:33.201Z,96
2017-06-02T19:53:41.659Z,32
2017-06-02T20:03:50.155Z,12
2017-06-02T20:13:58.671Z,4
2017-06-02T20:24:07.163Z,0
2017-06-02T20:34:15.932Z,0
2017-06-02T20:44:24.325Z,0
2017-06-02T20:54:33.009Z,0
2017-06-02T21:04:41.742Z,0
2017-06-02T21:14:50.533Z,0
2017-06-02T21:24:59.385Z,0
2017-06-02T21:35:08.270Z,0
2017-06-02T21:45:17.232Z,0
2017-06-02T21:55:26.203Z,0
2017-06-02T22:05:35.231Z,0
2017-06-02T22:15:44.330Z,0
2017-06-02T22:25:53.397Z,0
2017-06-02T22:36:02.482Z,0
2017-06-02T22:46:11.601Z,0
2017-06-02T22:56:20.838Z,0
2017-06-02T23:06:30.243Z,0
2017-06-02T23:16:39.173Z,0
2017-06-02T23:26:48.448Z,0
2017-06-02T23:36:57.784Z,0
2017-06-02T23:47:07.103Z,0
2017-06-02T23:57:16.354Z,0
